Time;durP1;ratioP1;P1;durP2;ratioP2;P2;SDS_P1;SDS_P2;PMS_P1;PMS_P2;Temp;Humidity;BMP_temperature;BMP_pressure;BME280_temperature;BME280_humidity;BME280_pressure;Samples;Min_cycle;Max_cycle;Signal;HPM_P1;HPM_P2
2023/01/26 00:01:16;;;;;;;57.63;24.33;;;-0.40;99.90;;;;;;5039398;28;20301;-60
2023/01/26 00:03:43;;;;;;;62.77;25.80;;;-0.20;99.90;;;;;;5035247;28;20241;-61
2023/01/26 00:06:12;;;;;;;56.73;23.13;;;-0.20;99.90;;;;;;5037767;28;20239;-60
2023/01/26 00:08:41;;;;;;;62.13;24.10;;;-0.30;99.90;;;;;;5036912;28;20925;-60
2023/01/26 00:11:10;;;;;;;60.27;24.10;;;-0.30;99.90;;;;;;5036872;28;20287;-61
2023/01/26 00:13:37;;;;;;;57.10;23.93;;;-0.30;99.90;;;;;;5034785;28;20251;-61
2023/01/26 00:16:07;;;;;;;59.33;23.10;;;-0.20;99.90;;;;;;5036746;28;20367;-61
2023/01/26 00:18:36;;;;;;;58.27;22.60;;;-0.20;99.90;;;;;;5030023;28;20720;-61
2023/01/26 00:21:03;;;;;;;58.07;24.23;;;-0.10;99.90;;;;;;5027029;28;21600;-62
2023/01/26 00:23:32;;;;;;;58.93;24.40;;;-0.30;99.90;;;;;;5027733;28;20350;-60
2023/01/26 00:26:00;;;;;;;60.30;24.57;;;-0.20;99.90;;;;;;5038585;28;20295;-61
2023/01/26 00:28:27;;;;;;;58.20;24.00;;;-0.20;99.90;;;;;;5035716;28;20473;-60
2023/01/26 00:31:05;;;;;;;52.57;23.00;;;-0.10;99.90;;;;;;5029955;28;20224;-61
2023/01/26 00:33:32;;;;;;;54.57;22.47;;;-0.20;99.90;;;;;;5036384;28;20993;-61
2023/01/26 00:35:59;;;;;;;59.23;22.33;;;-0.40;99.90;;;;;;5038664;28;20235;-60
2023/01/26 00:38:26;;;;;;;62.43;23.30;;;-0.40;99.90;;;;;;5039128;28;20199;-61
2023/01/26 00:40:53;;;;;;;61.97;24.23;;;-0.20;99.90;;;;;;5038280;28;20295;-62
2023/01/26 00:43:20;;;;;;;59.70;23.57;;;-0.10;99.90;;;;;;5039192;28;20223;-61
2023/01/26 00:45:47;;;;;;;55.57;24.23;;;-0.10;99.90;;;;;;5022588;28;20279;-61
2023/01/26 00:48:14;;;;;;;60.97;23.70;;;0.00;99.90;;;;;;5032160;28;20676;-60
2023/01/26 00:50:41;;;;;;;59.60;23.13;;;-0.10;99.90;;;;;;5050066;28;20238;-60
2023/01/26 00:53:08;;;;;;;52.80;23.70;;;-0.20;99.90;;;;;;5037001;28;20231;-61
2023/01/26 00:55:36;;;;;;;58.27;23.33;;;-0.20;99.90;;;;;;5034967;28;20238;-61
2023/01/26 00:58:07;;;;;;;57.50;24.47;;;0.00;99.90;;;;;;5039319;28;20636;-61
2023/01/26 01:00:36;;;;;;;55.07;22.67;;;-0.10;99.90;;;;;;5036216;28;20222;-60
2023/01/26 01:03:05;;;;;;;65.87;25.87;;;-0.20;99.90;;;;;;5037285;28;20216;-62
2023/01/26 01:05:32;;;;;;;63.67;24.03;;;-0.10;99.90;;;;;;5034167;28;20254;-62
2023/01/26 01:07:59;;;;;;;58.63;22.97;;;0.10;99.90;;;;;;5036499;28;20270;-61
2023/01/26 01:10:26;;;;;;;54.57;22.73;;;0.00;99.90;;;;;;5039951;28;20599;-60
2023/01/26 01:12:54;;;;;;;57.93;22.90;;;-0.10;99.90;;;;;;5036560;28;20235;-61
2023/01/26 01:15:20;;;;;;;61.43;22.97;;;-0.20;99.90;;;;;;5037170;28;20235;-61
2023/01/26 01:17:47;;;;;;;64.70;24.30;;;-0.20;99.90;;;;;;5034751;28;20199;-61
2023/01/26 01:20:14;;;;;;;61.10;25.80;;;-0.10;99.90;;;;;;5038043;28;20205;-61
2023/01/26 01:22:41;;;;;;;60.30;23.10;;;0.00;99.90;;;;;;5037785;28;20250;-61
2023/01/26 01:25:08;;;;;;;71.27;26.07;;;0.00;99.90;;;;;;5038502;28;20544;-61
2023/01/26 01:27:35;;;;;;;67.20;24.80;;;0.00;99.90;;;;;;5037705;28;20642;-61
2023/01/26 01:30:06;;;;;;;75.40;25.60;;;0.10;99.90;;;;;;5036053;28;20215;-61
2023/01/26 01:32:38;;;;;;;71.23;26.37;;;0.10;99.90;;;;;;5037239;28;20204;-61
2023/01/26 01:35:06;;;;;;;70.40;26.17;;;0.20;99.90;;;;;;5037790;28;20204;-60
2023/01/26 01:37:33;;;;;;;78.17;25.67;;;-0.10;99.90;;;;;;5037392;28;20227;-60
2023/01/26 01:39:59;;;;;;;76.47;27.00;;;-0.20;99.90;;;;;;5036962;28;20691;-61
2023/01/26 01:42:26;;;;;;;68.27;23.43;;;-0.20;99.90;;;;;;5039126;28;20229;-61
2023/01/26 01:45:25;;;;;;;65.97;26.00;;;-0.10;99.90;;;;;;5037767;28;20209;-61
2023/01/26 01:47:58;;;;;;;68.33;25.37;;;0.00;99.90;;;;;;5036185;28;20290;-60
2023/01/26 01:50:26;;;;;;;61.87;25.43;;;-0.10;99.90;;;;;;5038000;28;20282;-61
2023/01/26 01:52:54;;;;;;;70.20;23.90;;;0.00;99.90;;;;;;5038509;28;20660;-61
2023/01/26 01:55:24;;;;;;;71.23;24.43;;;-0.30;99.90;;;;;;5036188;28;20296;-61
2023/01/26 01:57:57;;;;;;;70.47;26.97;;;-0.20;99.90;;;;;;5032707;28;20607;-61
2023/01/26 02:00:25;;;;;;;64.80;25.33;;;-0.30;99.90;;;;;;5034344;28;20200;-61
2023/01/26 02:03:15;;;;;;;75.53;24.97;;;-0.10;99.90;;;;;;5032075;28;20726;-60
2023/01/26 02:06:00;;;;;;;69.20;26.03;;;-0.20;99.90;;;;;;5019126;28;20276;-62
2023/01/26 02:08:36;;;;;;;64.47;24.97;;;-0.20;99.90;;;;;;5027566;28;20188;-61
2023/01/26 02:11:13;;;;;;;62.03;24.37;;;0.00;99.90;;;;;;5032091;28;20250;-61
2023/01/26 02:13:43;;;;;;;68.03;27.07;;;-0.10;99.90;;;;;;5028620;28;20211;-60
2023/01/26 02:16:10;;;;;;;68.40;26.43;;;0.00;99.90;;;;;;5028941;28;20214;-60
2023/01/26 02:18:37;;;;;;;65.17;24.77;;;0.10;99.90;;;;;;5036429;28;20294;-61
2023/01/26 02:21:19;;;;;;;62.23;26.17;;;0.00;99.90;;;;;;5031553;28;20197;-61
2023/01/26 02:24:16;;;;;;;58.80;24.87;;;0.10;99.90;;;;;;5031785;28;20405;-61
2023/01/26 02:26:43;;;;;;;66.63;23.93;;;-0.20;99.90;;;;;;5031759;28;20197;-62
2023/01/26 02:29:10;;;;;;;69.37;23.10;;;-0.20;99.90;;;;;;5027697;28;20282;-60
2023/01/26 02:31:39;;;;;;;60.80;23.83;;;-0.30;99.90;;;;;;5030093;28;20240;-61
2023/01/26 02:34:06;;;;;;;70.30;24.27;;;-0.20;99.90;;;;;;5027452;28;20209;-61
2023/01/26 02:36:33;;;;;;;67.63;25.13;;;-0.10;99.90;;;;;;5031215;28;20229;-60
2023/01/26 02:39:25;;;;;;;62.77;23.07;;;-0.20;99.90;;;;;;5023016;28;20265;-61
2023/01/26 02:44:41;;;;;;;63.23;24.60;;;-0.30;99.90;;;;;;5026302;28;20216;-62
2023/01/26 02:47:12;;;;;;;62.70;23.80;;;-0.40;99.90;;;;;;5028613;28;20197;-61
2023/01/26 02:49:51;;;;;;;60.77;23.57;;;-0.30;99.90;;;;;;5025871;28;21408;-62
2023/01/26 02:52:21;;;;;;;59.50;22.83;;;-0.30;99.90;;;;;;5031688;28;20210;-61
2023/01/26 02:57:34;;;;;;;66.27;22.13;;;-0.30;99.90;;;;;;5030503;28;20240;-61
2023/01/26 03:00:04;;;;;;;59.20;21.57;;;-0.20;99.90;;;;;;5026707;28;20291;-61
2023/01/26 03:02:31;;;;;;;62.07;24.57;;;-0.30;99.90;;;;;;5033528;28;20928;-60
2023/01/26 03:04:58;;;;;;;65.20;23.30;;;-0.20;99.90;;;;;;5020621;28;20223;-61
2023/01/26 03:07:25;;;;;;;58.87;22.17;;;-0.10;99.90;;;;;;5026629;28;20333;-61
2023/01/26 03:09:52;;;;;;;55.80;22.20;;;-0.10;99.90;;;;;;5029871;28;20916;-61
2023/01/26 03:12:18;;;;;;;56.57;22.23;;;-0.10;99.90;;;;;;5028853;28;20557;-60
2023/01/26 03:14:45;;;;;;;63.33;23.07;;;-0.10;99.90;;;;;;5029420;28;20662;-60
2023/01/26 03:17:32;;;;;;;57.50;23.67;;;0.00;99.90;;;;;;5028195;28;20303;-61
2023/01/26 03:28:21;;;;;;;56.97;21.43;;;0.10;99.90;;;;;;5027818;28;20262;-61
2023/01/26 03:30:49;;;;;;;58.90;21.57;;;0.20;99.90;;;;;;5028298;28;20201;-62
2023/01/26 03:33:17;;;;;;;57.63;22.33;;;0.20;99.90;;;;;;5027226;28;20200;-61
2023/01/26 03:35:44;;;;;;;56.93;22.20;;;0.10;99.90;;;;;;5027193;28;20235;-61
2023/01/26 03:38:11;;;;;;;58.47;21.97;;;0.20;99.90;;;;;;5026325;28;20218;-61
2023/01/26 03:57:11;;;;;;;42.47;19.00;;;0.30;99.90;;;;;;5030043;28;20240;-61
2023/01/26 03:59:38;;;;;;;42.93;17.50;;;0.30;99.90;;;;;;5029738;28;20732;-60
2023/01/26 04:10:25;;;;;;;42.40;16.90;;;0.50;99.90;;;;;;5029679;28;20200;-60
2023/01/26 04:21:27;;;;;;;34.17;13.93;;;0.60;99.90;;;;;;5032913;28;20223;-63
2023/01/26 04:23:56;;;;;;;34.93;14.77;;;0.70;99.90;;;;;;5036099;28;20335;-60
2023/01/26 04:26:34;;;;;;;31.47;14.00;;;0.70;99.90;;;;;;5037398;28;20200;-60
2023/01/26 04:29:10;;;;;;;36.40;14.30;;;0.70;99.90;;;;;;5038831;28;20693;-58
2023/01/26 04:31:37;;;;;;;29.80;13.70;;;0.80;99.90;;;;;;5038738;28;20856;-59
2023/01/26 04:34:06;;;;;;;30.13;13.43;;;0.80;99.90;;;;;;5038408;28;20208;-58
2023/01/26 04:36:33;;;;;;;33.17;14.40;;;0.80;99.90;;;;;;5037508;28;20253;-59
2023/01/26 04:39:00;;;;;;;29.47;13.53;;;0.90;99.90;;;;;;5038449;28;20292;-60
2023/01/26 04:41:29;;;;;;;29.97;14.23;;;0.90;99.90;;;;;;5039390;28;20220;-60
2023/01/26 04:43:55;;;;;;;32.43;13.60;;;0.90;99.90;;;;;;5037848;28;20303;-60
2023/01/26 04:46:22;;;;;;;27.87;13.50;;;1.00;99.90;;;;;;5036348;28;20255;-60
2023/01/26 04:48:50;;;;;;;39.20;16.43;;;1.00;99.90;;;;;;5037816;28;20441;-59
2023/01/26 04:51:19;;;;;;;26.90;12.47;;;1.00;99.90;;;;;;5040162;28;20327;-59
2023/01/26 04:53:48;;;;;;;31.97;14.73;;;0.80;99.90;;;;;;5039658;28;20209;-59
2023/01/26 04:56:27;;;;;;;32.67;14.70;;;0.80;99.90;;;;;;5039173;28;20246;-60
2023/01/26 04:58:55;;;;;;;32.57;13.97;;;0.70;99.90;;;;;;5036748;28;20296;-59
2023/01/26 05:01:22;;;;;;;30.63;13.70;;;0.70;99.90;;;;;;5035247;28;22386;-59
2023/01/26 05:03:49;;;;;;;26.97;13.57;;;0.70;99.90;;;;;;5035504;28;20310;-59
2023/01/26 05:06:16;;;;;;;28.90;12.97;;;0.60;99.90;;;;;;5030989;28;20290;-61
2023/01/26 05:08:43;;;;;;;30.23;13.13;;;0.60;99.90;;;;;;5033305;28;20259;-58
2023/01/26 05:11:10;;;;;;;29.43;13.93;;;0.60;99.90;;;;;;5039066;28;20232;-59
2023/01/26 05:13:38;;;;;;;29.13;12.57;;;0.60;99.90;;;;;;5039832;28;20245;-58
2023/01/26 05:16:06;;;;;;;29.70;13.67;;;0.70;99.90;;;;;;5032279;28;20223;-59
2023/01/26 05:18:33;;;;;;;29.43;12.53;;;0.70;99.90;;;;;;5038907;28;20623;-59
2023/01/26 05:21:00;;;;;;;31.73;12.80;;;0.70;99.90;;;;;;5035584;28;20422;-62
2023/01/26 05:23:26;;;;;;;29.63;12.93;;;0.70;99.90;;;;;;5035348;28;20221;-59
2023/01/26 05:25:53;;;;;;;27.43;12.77;;;0.70;99.90;;;;;;5035436;28;20292;-60
2023/01/26 05:28:20;;;;;;;27.20;12.77;;;0.80;99.90;;;;;;5034956;28;20550;-61
2023/01/26 05:30:47;;;;;;;29.60;13.77;;;0.80;99.90;;;;;;5037751;28;20198;-61
2023/01/26 05:33:14;;;;;;;31.13;13.80;;;0.70;99.90;;;;;;5038494;28;20568;-59
2023/01/26 05:35:42;;;;;;;31.20;13.23;;;0.80;99.90;;;;;;5035496;28;20254;-60
2023/01/26 05:38:08;;;;;;;29.60;11.47;;;0.90;99.90;;;;;;5026942;28;20921;-59
2023/01/26 05:40:35;;;;;;;36.87;13.77;;;0.90;99.90;;;;;;5035334;28;20213;-59
2023/01/26 05:43:02;;;;;;;30.40;13.80;;;1.20;99.90;;;;;;5029808;28;20201;-60
2023/01/26 05:45:29;;;;;;;32.50;13.03;;;1.20;99.90;;;;;;5036899;28;20249;-59
2023/01/26 05:47:56;;;;;;;31.77;13.00;;;1.10;99.90;;;;;;5036663;28;20205;-61
2023/01/26 05:50:22;;;;;;;26.37;11.37;;;1.10;99.90;;;;;;5038098;28;20196;-63
2023/01/26 05:52:49;;;;;;;27.60;11.73;;;1.10;99.90;;;;;;5037672;28;20246;-61
2023/01/26 05:55:16;;;;;;;32.73;13.67;;;1.20;99.90;;;;;;5035105;28;20664;-60
2023/01/26 05:57:43;;;;;;;30.40;13.93;;;1.30;99.90;;;;;;5037996;28;20840;-60
2023/01/26 06:00:11;;;;;;;27.93;12.37;;;1.20;99.90;;;;;;5037769;28;20232;-61
2023/01/26 06:02:39;;;;;;;26.13;12.17;;;1.30;99.90;;;;;;5037941;28;20218;-61
2023/01/26 06:05:07;;;;;;;27.40;12.20;;;1.20;99.90;;;;;;5036054;28;20303;-61
2023/01/26 06:07:34;;;;;;;23.73;10.90;;;1.10;99.90;;;;;;5039190;28;20713;-61
2023/01/26 06:10:00;;;;;;;29.90;12.47;;;1.10;99.90;;;;;;5036359;28;20288;-60
2023/01/26 06:12:30;;;;;;;29.27;12.07;;;1.20;99.90;;;;;;5038057;28;20198;-60
2023/01/26 06:14:57;;;;;;;29.23;11.93;;;1.10;99.90;;;;;;5036792;28;20212;-59
2023/01/26 06:17:24;;;;;;;27.10;11.03;;;1.20;99.90;;;;;;5035767;28;20655;-60
2023/01/26 06:19:51;;;;;;;26.83;11.57;;;1.00;99.90;;;;;;5035719;28;20286;-59
2023/01/26 06:22:18;;;;;;;29.67;12.00;;;1.10;99.90;;;;;;5038772;28;20560;-59
2023/01/26 06:24:45;;;;;;;28.27;11.83;;;0.90;99.90;;;;;;5034051;28;20684;-60
2023/01/26 06:27:17;;;;;;;32.10;13.27;;;1.10;99.90;;;;;;5035880;28;20519;-60
2023/01/26 06:29:45;;;;;;;25.00;11.53;;;0.90;99.90;;;;;;5020092;28;20203;-61
2023/01/26 06:32:15;;;;;;;29.83;12.00;;;1.00;99.90;;;;;;5027856;28;20280;-63
2023/01/26 06:34:42;;;;;;;30.07;13.33;;;0.90;99.90;;;;;;5031325;28;20221;-60
2023/01/26 06:37:09;;;;;;;31.77;11.90;;;1.10;99.90;;;;;;5036062;28;20574;-59
2023/01/26 06:39:36;;;;;;;28.13;12.73;;;1.10;99.90;;;;;;5034457;28;20640;-59
2023/01/26 06:42:03;;;;;;;31.80;12.97;;;1.10;99.90;;;;;;5037819;28;20239;-59
2023/01/26 06:44:30;;;;;;;29.73;13.97;;;1.00;99.90;;;;;;5035384;28;20671;-60
2023/01/26 06:46:57;;;;;;;27.33;11.63;;;1.00;99.90;;;;;;5031177;28;20200;-60
2023/01/26 06:49:23;;;;;;;26.30;12.03;;;1.00;99.90;;;;;;5035511;28;20434;-60
2023/01/26 06:52:02;;;;;;;26.97;12.43;;;1.00;99.90;;;;;;5037705;28;20240;-63
2023/01/26 06:54:28;;;;;;;25.30;11.60;;;1.20;99.90;;;;;;5037431;28;20614;-64
2023/01/26 06:56:55;;;;;;;28.70;12.13;;;1.30;99.90;;;;;;5036919;28;20580;-60
2023/01/26 06:59:22;;;;;;;25.03;9.93;;;1.40;99.90;;;;;;5032041;28;20223;-62
2023/01/26 07:01:49;;;;;;;30.37;11.07;;;1.50;99.90;;;;;;5025202;28;20212;-59
2023/01/26 07:04:17;;;;;;;29.27;12.33;;;1.50;99.90;;;;;;5028589;28;20667;-60
2023/01/26 07:06:43;;;;;;;27.00;11.60;;;1.60;99.90;;;;;;5028561;28;20596;-60
2023/01/26 07:09:10;;;;;;;23.97;10.10;;;1.60;99.90;;;;;;5022871;28;20207;-60
2023/01/26 07:11:37;;;;;;;29.27;12.00;;;1.60;99.90;;;;;;5024418;28;20196;-60
2023/01/26 07:14:04;;;;;;;31.37;11.70;;;1.60;99.90;;;;;;5027615;28;20208;-60
2023/01/26 07:16:31;;;;;;;27.10;11.23;;;1.70;99.90;;;;;;5025409;28;20239;-60
2023/01/26 07:18:59;;;;;;;28.07;12.37;;;1.70;99.90;;;;;;5031909;28;20309;-60
2023/01/26 07:21:26;;;;;;;26.50;12.43;;;1.70;99.90;;;;;;5034110;28;20669;-60
2023/01/26 07:23:54;;;;;;;29.60;11.40;;;1.70;99.90;;;;;;5028221;28;20295;-60
2023/01/26 07:26:21;;;;;;;30.03;12.47;;;1.80;99.90;;;;;;5030359;28;20652;-61
2023/01/26 07:28:48;;;;;;;33.03;13.00;;;1.80;99.90;;;;;;4660527;28;10000259;-60
2023/01/26 07:31:15;;;;;;;28.50;12.53;;;1.60;99.90;;;;;;5017954;28;20231;-61
2023/01/26 07:33:42;;;;;;;23.43;10.97;;;1.70;99.90;;;;;;5021679;28;20207;-60
2023/01/26 07:36:09;;;;;;;25.80;10.77;;;1.80;99.90;;;;;;5031002;28;20567;-60
2023/01/26 07:38:37;;;;;;;29.23;11.50;;;1.90;99.90;;;;;;5021821;28;20669;-60
2023/01/26 07:41:07;;;;;;;29.30;12.13;;;1.80;99.90;;;;;;5019571;28;20303;-60
2023/01/26 07:43:36;;;;;;;26.87;11.70;;;1.70;99.90;;;;;;5022501;28;20213;-60
2023/01/26 07:46:03;;;;;;;25.53;11.93;;;1.90;99.90;;;;;;5024568;28;20266;-60
2023/01/26 07:48:33;;;;;;;27.07;12.20;;;1.90;99.90;;;;;;5030869;28;20201;-61
2023/01/26 07:51:02;;;;;;;28.70;12.57;;;1.90;99.90;;;;;;5024108;28;20287;-60
2023/01/26 07:53:32;;;;;;;30.33;12.20;;;1.80;99.90;;;;;;5022367;28;20204;-60
2023/01/26 07:56:13;;;;;;;25.97;10.90;;;2.00;99.90;;;;;;5022125;28;20326;-60
2023/01/26 07:58:40;;;;;;;23.37;10.90;;;2.00;99.90;;;;;;5021564;28;20195;-65
2023/01/26 08:01:13;;;;;;;26.57;11.50;;;2.10;99.90;;;;;;5032132;28;20232;-59
2023/01/26 08:03:41;;;;;;;25.43;10.97;;;2.10;99.90;;;;;;5025895;28;20200;-60
2023/01/26 08:06:08;;;;;;;23.47;11.17;;;2.20;99.90;;;;;;5030296;28;20602;-62
2023/01/26 08:08:40;;;;;;;24.27;11.70;;;2.20;99.90;;;;;;5023245;28;20683;-60
2023/01/26 08:11:08;;;;;;;27.87;12.67;;;2.30;99.90;;;;;;5025058;28;20200;-60
2023/01/26 08:13:35;;;;;;;27.30;12.10;;;2.20;99.90;;;;;;5020206;28;20253;-60
2023/01/26 08:16:10;;;;;;;34.20;13.23;;;2.20;99.90;;;;;;5028039;28;20684;-60
2023/01/26 08:18:42;;;;;;;29.37;11.57;;;2.20;99.90;;;;;;5022636;28;20274;-59
2023/01/26 08:21:10;;;;;;;28.80;12.67;;;2.30;99.90;;;;;;5014633;28;20209;-59
2023/01/26 08:23:37;;;;;;;30.30;13.97;;;2.30;99.90;;;;;;5012595;28;20216;-60
2023/01/26 08:26:06;;;;;;;28.47;13.20;;;2.30;99.90;;;;;;5012710;28;20310;-60
2023/01/26 08:28:34;;;;;;;26.47;13.00;;;2.30;99.90;;;;;;5021864;28;20201;-61
2023/01/26 08:31:10;;;;;;;32.17;13.60;;;2.40;99.90;;;;;;5024904;28;20196;-62
2023/01/26 08:33:38;;;;;;;32.63;14.53;;;2.40;99.90;;;;;;5027909;28;20208;-61
2023/01/26 08:36:09;;;;;;;31.87;13.30;;;2.30;99.90;;;;;;5020079;28;20228;-61
2023/01/26 08:38:36;;;;;;;36.73;15.27;;;2.40;99.90;;;;;;5026502;28;20205;-59
2023/01/26 08:41:03;;;;;;;33.23;13.67;;;2.40;99.90;;;;;;5032585;28;20347;-59
2023/01/26 08:43:30;;;;;;;30.67;13.40;;;2.40;99.90;;;;;;5027188;28;20200;-59
2023/01/26 08:45:57;;;;;;;40.03;15.13;;;2.40;99.90;;;;;;5023789;28;20571;-61
2023/01/26 08:48:24;;;;;;;36.90;16.03;;;2.50;99.90;;;;;;5021914;28;20668;-64
2023/01/26 08:50:56;;;;;;;35.93;15.23;;;2.50;99.90;;;;;;5018953;28;20197;-60
2023/01/26 08:53:23;;;;;;;30.63;14.37;;;2.50;99.90;;;;;;5035019;28;20467;-60
2023/01/26 08:55:50;;;;;;;35.73;14.07;;;2.40;99.90;;;;;;5034051;28;20275;-60
2023/01/26 08:58:19;;;;;;;40.83;15.50;;;2.60;99.90;;;;;;5027546;28;20733;-61
2023/01/26 09:00:46;;;;;;;43.93;14.13;;;2.60;99.90;;;;;;5025377;28;20596;-60
2023/01/26 09:03:13;;;;;;;40.80;14.90;;;2.70;99.90;;;;;;5024125;28;20311;-61
2023/01/26 09:05:40;;;;;;;37.53;14.90;;;2.60;99.90;;;;;;5019560;28;20863;-61
2023/01/26 09:08:08;;;;;;;38.40;15.37;;;2.70;99.90;;;;;;5013454;28;20920;-61
2023/01/26 09:10:37;;;;;;;39.77;15.87;;;2.80;99.90;;;;;;5026962;28;20857;-62
2023/01/26 09:13:05;;;;;;;37.50;14.63;;;2.80;99.90;;;;;;5031600;28;20197;-61
2023/01/26 09:15:31;;;;;;;32.60;13.87;;;2.80;99.90;;;;;;5023681;28;20215;-61
2023/01/26 09:17:58;;;;;;;44.83;16.83;;;2.90;99.90;;;;;;5020473;28;20215;-60
2023/01/26 09:20:27;;;;;;;47.67;16.50;;;2.90;99.90;;;;;;5026894;28;20297;-61
2023/01/26 09:22:54;;;;;;;34.53;15.73;;;2.90;99.90;;;;;;5022228;28;20748;-63
2023/01/26 09:25:21;;;;;;;39.43;15.73;;;2.90;99.90;;;;;;5031415;28;20216;-60
2023/01/26 09:27:47;;;;;;;32.37;14.37;;;2.80;99.90;;;;;;5014532;28;20227;-62
2023/01/26 09:30:15;;;;;;;41.60;15.50;;;2.80;99.90;;;;;;5014156;28;20208;-60
2023/01/26 09:32:42;;;;;;;48.00;14.37;;;2.70;99.90;;;;;;5019370;28;20203;-59
2023/01/26 09:35:10;;;;;;;43.33;15.97;;;2.90;99.90;;;;;;5022008;28;20292;-60
2023/01/26 09:37:42;;;;;;;38.73;14.53;;;2.90;99.90;;;;;;5014254;28;20347;-61
2023/01/26 09:40:17;;;;;;;41.33;16.17;;;3.00;99.90;;;;;;5024069;28;20207;-61
2023/01/26 09:43:16;;;;;;;39.10;15.20;;;3.00;99.90;;;;;;5025042;28;20207;-62
2023/01/26 09:46:02;;;;;;;40.93;15.40;;;3.00;99.90;;;;;;5021223;28;20234;-61
2023/01/26 09:48:35;;;;;;;37.50;14.67;;;2.90;99.90;;;;;;5040500;28;20624;-61
2023/01/26 09:51:05;;;;;;;38.80;14.73;;;3.00;99.90;;;;;;5027009;28;20228;-60
2023/01/26 09:53:54;;;;;;;42.53;14.10;;;3.10;99.90;;;;;;5025758;28;20668;-62
2023/01/26 09:56:27;;;;;;;38.13;15.27;;;3.20;99.90;;;;;;5021595;28;20292;-62
2023/01/26 09:59:14;;;;;;;38.67;14.50;;;3.20;99.90;;;;;;5024583;28;20254;-62
2023/01/26 10:02:00;;;;;;;43.83;15.37;;;3.10;99.90;;;;;;5024980;28;20302;-61
2023/01/26 10:04:35;;;;;;;44.47;13.47;;;3.10;99.90;;;;;;5025368;28;20246;-62
2023/01/26 10:07:08;;;;;;;38.57;15.33;;;3.20;99.90;;;;;;5025746;28;20224;-63
2023/01/26 10:09:37;;;;;;;40.53;16.37;;;3.30;99.90;;;;;;5020073;28;20196;-63
2023/01/26 10:12:27;;;;;;;40.27;15.67;;;3.30;99.90;;;;;;5022620;28;20990;-62
2023/01/26 10:15:25;;;;;;;34.60;15.27;;;3.40;99.90;;;;;;5039783;28;20216;-62
2023/01/26 10:17:53;;;;;;;33.37;13.73;;;3.50;99.90;;;;;;5008728;28;20211;-62
2023/01/26 10:20:29;;;;;;;38.93;14.27;;;3.70;99.90;;;;;;5024546;28;20292;-63
2023/01/26 10:23:32;;;;;;;40.40;14.67;;;3.80;99.90;;;;;;5024943;28;21106;-63
2023/01/26 10:26:16;;;;;;;36.37;15.33;;;4.00;99.90;;;;;;5018101;28;21737;-62
2023/01/26 10:28:45;;;;;;;37.00;13.37;;;4.00;99.90;;;;;;5019828;28;20274;-62
2023/01/26 10:31:21;;;;;;;36.17;13.57;;;4.20;99.90;;;;;;5021519;28;20196;-64
2023/01/26 10:33:59;;;;;;;36.60;14.17;;;4.40;99.90;;;;;;5020407;28;20200;-63
2023/01/26 10:36:30;;;;;;;32.53;12.73;;;4.60;99.90;;;;;;5024128;28;20252;-62
2023/01/26 10:39:09;;;;;;;30.77;11.67;;;4.80;99.90;;;;;;5025121;28;20207;-62
2023/01/26 10:41:36;;;;;;;28.27;12.03;;;5.10;99.90;;;;;;5021031;28;20322;-62
2023/01/26 10:44:22;;;;;;;31.43;11.67;;;5.10;99.90;;;;;;5022846;28;20206;-63
2023/01/26 10:47:04;;;;;;;24.63;10.57;;;5.10;99.90;;;;;;5031273;28;20219;-62
2023/01/26 10:49:31;;;;;;;35.37;10.70;;;5.10;99.90;;;;;;5018454;28;20705;-62
2023/01/26 10:52:23;;;;;;;28.93;9.23;;;5.20;99.90;;;;;;5027937;28;20573;-62
2023/01/26 10:55:19;;;;;;;38.70;10.53;;;5.20;99.90;;;;;;5025907;28;20229;-62
2023/01/26 10:57:46;;;;;;;25.03;9.60;;;5.60;99.90;;;;;;5027016;28;20586;-62
2023/01/26 11:00:24;;;;;;;29.53;10.40;;;5.80;99.90;;;;;;5026083;28;20208;-62
2023/01/26 11:03:00;;;;;;;30.47;9.83;;;6.20;99.90;;;;;;5030051;28;20674;-61
2023/01/26 11:05:27;;;;;;;34.43;9.10;;;6.40;99.90;;;;;;5025353;28;20219;-63
2023/01/26 11:07:59;;;;;;;21.07;8.40;;;6.60;99.90;;;;;;5025482;28;22329;-64
2023/01/26 11:10:31;;;;;;;28.87;8.13;;;6.80;99.90;;;;;;5033803;28;20204;-62
2023/01/26 11:13:18;;;;;;;23.43;7.77;;;6.90;99.90;;;;;;5039747;28;20595;-63
2023/01/26 11:16:00;;;;;;;32.07;8.10;;;6.80;99.90;;;;;;5027017;28;20234;-65
2023/01/26 11:18:41;;;;;;;21.33;6.67;;;6.90;99.90;;;;;;5024026;28;20207;-64
2023/01/26 11:21:18;;;;;;;19.17;6.03;;;7.20;99.90;;;;;;5025559;28;20199;-63
2023/01/26 11:23:53;;;;;;;26.20;6.07;;;7.40;99.90;;;;;;5017546;28;20784;-64
2023/01/26 11:26:32;;;;;;;19.07;5.60;;;7.60;99.90;;;;;;5027068;28;20227;-63
2023/01/26 11:29:36;;;;;;;17.73;6.13;;;7.60;99.90;;;;;;5018131;28;20265;-63
2023/01/26 11:32:29;;;;;;;13.70;4.83;;;7.80;99.90;;;;;;5021055;28;20310;-63
2023/01/26 11:35:02;;;;;;;16.87;4.40;;;8.00;99.90;;;;;;5026580;28;20196;-63
2023/01/26 11:37:58;;;;;;;16.73;5.47;;;8.20;99.90;;;;;;5030306;28;20239;-63
2023/01/26 11:40:45;;;;;;;20.00;5.00;;;8.00;99.90;;;;;;5009868;28;20233;-64
2023/01/26 11:43:29;;;;;;;19.23;5.57;;;8.00;99.90;;;;;;5024586;28;20198;-63
2023/01/26 11:46:02;;;;;;;13.47;4.40;;;8.00;99.90;;;;;;5024306;28;20308;-63
2023/01/26 11:48:45;;;;;;;17.53;4.50;;;8.00;99.90;;;;;;5028520;28;20201;-63
2023/01/26 11:51:18;;;;;;;14.83;4.07;;;8.20;99.90;;;;;;5023554;28;20208;-63
2023/01/26 11:54:06;;;;;;;15.20;5.10;;;7.90;99.90;;;;;;5016199;28;20207;-63
2023/01/26 11:57:18;;;;;;;16.30;4.37;;;8.30;99.90;;;;;;5025719;28;21441;-63
2023/01/26 12:00:13;;;;;;;15.97;4.03;;;8.80;99.90;;;;;;5008759;28;20219;-63
2023/01/26 12:03:22;;;;;;;11.07;4.03;;;8.50;99.90;;;;;;5018745;28;20583;-63
2023/01/26 12:05:56;;;;;;;14.37;4.33;;;9.10;99.90;;;;;;5027921;28;20769;-63
2023/01/26 12:08:44;;;;;;;12.30;4.00;;;9.20;99.90;;;;;;5026835;28;20207;-63
2023/01/26 12:11:46;;;;;;;18.60;3.70;;;9.30;99.90;;;;;;5027113;28;20203;-65
2023/01/26 12:14:48;;;;;;;17.50;3.67;;;9.30;99.90;;;;;;5016249;28;20779;-64
2023/01/26 12:17:37;;;;;;;11.97;3.90;;;9.10;99.90;;;;;;5024809;28;20268;-64
2023/01/26 12:20:32;;;;;;;12.40;2.70;;;8.80;99.90;;;;;;5027882;28;20229;-64
2023/01/26 12:23:08;;;;;;;17.80;2.97;;;8.70;99.90;;;;;;5025989;28;20295;-64
2023/01/26 12:25:38;;;;;;;18.10;3.20;;;8.80;99.90;;;;;;5029028;28;20313;-63
2023/01/26 12:28:32;;;;;;;22.23;2.73;;;8.90;99.90;;;;;;5025419;28;20206;-63
2023/01/26 12:31:22;;;;;;;8.07;2.20;;;9.60;99.90;;;;;;5038441;28;20207;-65
2023/01/26 12:33:53;;;;;;;14.10;2.80;;;9.70;99.90;;;;;;5026072;28;20208;-64
2023/01/26 12:36:44;;;;;;;14.10;2.40;;;9.90;99.90;;;;;;5027131;28;20223;-63
2023/01/26 12:39:34;;;;;;;15.90;3.00;;;10.10;99.90;;;;;;5029060;28;20299;-63
2023/01/26 12:42:28;;;;;;;11.30;2.63;;;10.00;99.90;;;;;;5013269;28;20211;-65
2023/01/26 12:45:00;;;;;;;11.80;1.90;;;10.20;99.90;;;;;;5019145;28;20663;-64
2023/01/26 12:47:43;;;;;;;11.17;2.67;;;9.60;99.90;;;;;;5025657;28;20271;-63
2023/01/26 12:50:36;;;;;;;13.10;2.73;;;9.10;99.90;;;;;;5023008;28;20210;-63
2023/01/26 12:53:17;;;;;;;7.50;2.60;;;8.90;99.90;;;;;;5025823;28;20219;-65
2023/01/26 12:55:52;;;;;;;8.33;1.70;;;9.10;99.90;;;;;;5017570;28;20291;-63
2023/01/26 12:58:31;;;;;;;12.53;2.17;;;9.30;99.90;;;;;;5025700;28;20387;-63
2023/01/26 13:01:04;;;;;;;5.73;1.87;;;9.80;99.90;;;;;;5016220;28;20231;-64
2023/01/26 13:03:37;;;;;;;13.10;2.63;;;10.50;99.90;;;;;;5019804;28;20213;-63
2023/01/26 13:06:09;;;;;;;12.70;2.60;;;10.60;99.90;;;;;;5028845;28;20305;-65
2023/01/26 13:08:36;;;;;;;12.03;2.13;;;10.50;99.90;;;;;;5014966;28;20196;-63
2023/01/26 13:11:08;;;;;;;7.70;2.07;;;10.40;99.90;;;;;;5019559;28;20226;-63
2023/01/26 13:13:55;;;;;;;12.13;2.60;;;10.00;99.90;;;;;;5026570;28;20310;-65
2023/01/26 13:16:30;;;;;;;9.30;1.87;;;9.70;99.90;;;;;;5024411;28;20306;-63
2023/01/26 13:18:58;;;;;;;17.83;2.53;;;9.90;99.90;;;;;;5015874;28;20223;-64
2023/01/26 13:21:26;;;;;;;14.30;2.63;;;10.00;99.90;;;;;;5026024;28;20237;-65
2023/01/26 13:23:53;;;;;;;8.00;2.17;;;10.30;99.90;;;;;;5014598;28;20213;-64
2023/01/26 13:26:24;;;;;;;14.30;2.43;;;10.00;99.90;;;;;;5018508;28;20789;-64
2023/01/26 13:29:11;;;;;;;8.80;2.20;;;9.70;99.90;;;;;;5015837;28;20209;-64
2023/01/26 13:31:38;;;;;;;17.37;2.60;;;9.70;99.90;;;;;;5017485;28;20192;-65
2023/01/26 13:34:07;;;;;;;5.13;1.60;;;9.80;99.90;;;;;;5018497;28;20250;-64
2023/01/26 13:36:38;;;;;;;10.07;2.03;;;10.10;99.90;;;;;;5010150;28;20544;-64
2023/01/26 13:39:32;;;;;;;16.33;2.20;;;9.80;99.90;;;;;;5010780;28;20276;-63
2023/01/26 13:41:59;;;;;;;5.67;2.30;;;9.60;99.90;;;;;;5017316;28;22082;-64
2023/01/26 13:44:44;;;;;;;6.30;2.17;;;9.10;99.90;;;;;;5019866;28;20545;-65
2023/01/26 13:47:18;;;;;;;13.57;2.17;;;8.90;99.90;;;;;;5015328;28;20207;-63
2023/01/26 13:49:49;;;;;;;11.93;2.10;;;9.00;99.90;;;;;;5017483;28;20212;-64
2023/01/26 13:52:19;;;;;;;5.67;2.07;;;9.10;99.90;;;;;;5017581;28;20701;-63